Jeffris, Wisconsin
Current Conditions -  °F | °C
As of 9:55 AM on Friday 31 Oct 2014 (Local Time) from KRRL Reporting Station
Overcast Overcast  
Wind Chill: 19°   Ceiling: 2900
Heat Index: 30°   Visibility: 10mi
Dew Point: 22°   Wind: 16mph
Humidity: 72%   Direction: 10°N
Pressure: 30.37"   Gusts: 25mph
Location:  45.3595°N, 89.45°W
Report Text: KRRL 311455Z AUTO 01014G22KT 10SM BKN029 OVC034 M01/M06 A3037 RMK AO2 T10111056
Loading
Personal Weather Stations






























Interactive Weather Map
Tropical Storm Tracking
New forecast layout! Learn more

10-Day Weather Forecast

Advertisements
Track Severe Weather on mobile